createdAt,value
2022-10-13T00:00:47.319Z,14.20
2022-10-13T00:03:14.371Z,14.25
2022-10-13T00:05:46.516Z,14.24
2022-10-13T00:08:15.422Z,14.24
2022-10-13T00:10:43.934Z,14.21
2022-10-13T00:13:11.562Z,14.22
2022-10-13T00:15:40.062Z,14.22
2022-10-13T00:18:06.786Z,14.23
2022-10-13T00:20:33.326Z,14.22
2022-10-13T00:22:59.692Z,14.15
2022-10-13T00:25:26.126Z,14.14
2022-10-13T00:27:52.492Z,14.14
2022-10-13T00:30:20.110Z,14.14
2022-10-13T00:32:46.745Z,14.16
2022-10-13T00:35:13.572Z,14.17
2022-10-13T00:37:39.904Z,14.16
2022-10-13T00:40:07.560Z,14.14
2022-10-13T00:42:34.008Z,14.10
2022-10-13T00:45:21.434Z,14.10
2022-10-13T00:47:51.855Z,14.07
2022-10-13T00:50:23.882Z,14.05
2022-10-13T00:52:56.092Z,14.06
2022-10-13T00:55:28.511Z,13.97
2022-10-13T00:57:56.018Z,13.89
2022-10-13T01:00:30.219Z,13.88
2022-10-13T01:02:57.282Z,13.87
2022-10-13T01:05:24.820Z,13.86
2022-10-13T01:07:56.686Z,13.86
2022-10-13T01:10:48.781Z,13.78
2022-10-13T01:13:30.735Z,13.74
2022-10-13T01:16:17.362Z,13.71
2022-10-13T01:19:07.827Z,13.61
2022-10-13T01:21:47.381Z,13.59
2022-10-13T01:24:41.660Z,13.60
2022-10-13T01:27:21.724Z,13.60
2022-10-13T01:30:03.440Z,13.61
2022-10-13T01:32:58.602Z,13.54
2022-10-13T01:35:39.202Z,13.55
2022-10-13T01:38:13.485Z,13.52
2022-10-13T01:40:47.932Z,13.47
2022-10-13T01:43:22.215Z,13.46
2022-10-13T01:46:02.375Z,13.43
2022-10-13T01:48:29.632Z,13.41
2022-10-13T01:50:59.006Z,13.35
2022-10-13T01:53:26.858Z,13.29
2022-10-13T01:55:57.066Z,13.26
2022-10-13T01:58:27.285Z,13.22
2022-10-13T02:01:31.313Z,13.18
2022-10-13T02:04:10.025Z,13.23
2022-10-13T02:06:45.431Z,13.19
2022-10-13T02:09:28.171Z,13.18
2022-10-13T02:12:02.279Z,13.17
2022-10-13T02:14:36.168Z,13.17
2022-10-13T02:17:04.930Z,13.15
2022-10-13T02:19:36.142Z,13.13
2022-10-13T02:22:04.049Z,13.15
2022-10-13T02:24:30.747Z,13.15
2022-10-13T02:26:57.586Z,13.15
2022-10-13T02:29:24.248Z,13.15
2022-10-13T02:31:50.753Z,13.13
2022-10-13T02:34:17.157Z,13.16
2022-10-13T02:36:46.299Z,13.17
2022-10-13T02:39:12.927Z,13.18
2022-10-13T02:41:39.544Z,13.17
2022-10-13T02:44:06.805Z,13.15
2022-10-13T02:46:34.284Z,13.17
2022-10-13T02:49:00.906Z,13.14
2022-10-13T02:51:28.448Z,13.13
2022-10-13T02:53:54.880Z,13.13
2022-10-13T02:56:21.213Z,13.13
2022-10-13T02:58:47.677Z,13.14
2022-10-13T03:01:15.342Z,13.13
2022-10-13T03:03:42.307Z,13.12
2022-10-13T03:06:08.796Z,13.09
2022-10-13T03:08:36.312Z,13.07
2022-10-13T03:11:03.397Z,13.09
2022-10-13T03:13:29.944Z,13.12
2022-10-13T03:16:03.382Z,13.16
2022-10-13T03:18:30.089Z,13.17
2022-10-13T03:21:01.806Z,13.12
2022-10-13T03:23:28.502Z,13.13
2022-10-13T03:25:55.395Z,13.14
2022-10-13T03:28:22.639Z,13.10
2022-10-13T03:30:50.883Z,13.10
2022-10-13T03:33:17.424Z,13.05
2022-10-13T03:35:44.156Z,13.00
2022-10-13T03:38:11.145Z,13.00
2022-10-13T03:40:38.581Z,12.98
2022-10-13T03:43:05.000Z,12.96
2022-10-13T03:45:31.554Z,12.94
2022-10-13T03:47:58.469Z,12.94
2022-10-13T03:50:26.129Z,12.95
2022-10-13T03:52:54.188Z,12.97
2022-10-13T03:55:20.752Z,13.00
2022-10-13T03:57:47.124Z,13.03
2022-10-13T04:00:14.300Z,13.04
2022-10-13T04:02:41.791Z,13.04
2022-10-13T04:05:08.556Z,13.02
2022-10-13T04:07:34.993Z,12.99
2022-10-13T04:10:10.284Z,12.99
2022-10-13T04:12:38.373Z,12.94
2022-10-13T04:15:05.144Z,12.97
2022-10-13T04:17:31.478Z,13.00
2022-10-13T04:19:57.890Z,13.03
2022-10-13T04:22:24.212Z,13.07
2022-10-13T04:24:50.615Z,13.08
2022-10-13T04:27:19.029Z,13.12
2022-10-13T04:29:45.468Z,13.16
2022-10-13T04:32:11.904Z,13.16
2022-10-13T04:34:38.442Z,13.15
2022-10-13T04:37:04.775Z,13.14
2022-10-13T04:39:31.252Z,13.13
2022-10-13T04:41:57.672Z,13.11
2022-10-13T04:44:23.989Z,13.09
2022-10-13T04:46:50.352Z,13.07
2022-10-13T04:49:17.133Z,13.08
2022-10-13T04:51:43.563Z,13.08
2022-10-13T04:54:10.409Z,13.06
2022-10-13T04:56:36.809Z,13.03
2022-10-13T04:59:05.676Z,13.00
2022-10-13T05:01:33.003Z,12.97
2022-10-13T05:04:01.814Z,12.98
2022-10-13T05:06:48.593Z,12.96
2022-10-13T05:09:23.505Z,12.97
2022-10-13T05:11:49.855Z,12.95
2022-10-13T05:14:16.248Z,12.94
2022-10-13T05:16:42.680Z,12.94
2022-10-13T05:19:09.030Z,12.93
2022-10-13T05:21:35.482Z,12.91
2022-10-13T05:24:02.651Z,12.91
2022-10-13T05:26:31.897Z,12.91
2022-10-13T05:28:59.717Z,12.93
2022-10-13T05:31:30.859Z,12.93
2022-10-13T05:33:59.844Z,12.96
2022-10-13T05:36:32.334Z,12.93
2022-10-13T05:39:01.382Z,12.94
2022-10-13T05:41:28.977Z,12.96
2022-10-13T05:44:04.607Z,12.95
2022-10-13T05:46:31.214Z,12.94
2022-10-13T05:48:57.558Z,12.88
2022-10-13T05:51:30.024Z,12.87
2022-10-13T05:54:25.532Z,12.81
2022-10-13T05:56:57.271Z,12.86
2022-10-13T05:59:29.844Z,12.79
2022-10-13T06:01:56.433Z,12.81
2022-10-13T06:04:37.440Z,12.78
2022-10-13T06:07:04.091Z,12.80
2022-10-13T06:09:37.867Z,12.75
2022-10-13T06:12:05.471Z,12.79
2022-10-13T06:14:31.945Z,12.83
2022-10-13T06:16:58.337Z,12.82
2022-10-13T06:19:24.847Z,12.83
2022-10-13T06:21:51.353Z,12.86
2022-10-13T06:24:17.860Z,12.80
2022-10-13T06:26:44.412Z,12.70
2022-10-13T06:29:10.847Z,12.73
2022-10-13T06:31:37.656Z,12.82
2022-10-13T06:34:04.114Z,12.91
2022-10-13T06:36:31.428Z,12.86
2022-10-13T06:38:57.847Z,12.83
2022-10-13T06:41:24.284Z,12.81
2022-10-13T06:43:50.800Z,12.65
2022-10-13T06:46:17.350Z,12.62
2022-10-13T06:48:43.820Z,12.63
2022-10-13T06:51:12.204Z,12.56
2022-10-13T06:53:38.658Z,12.52
2022-10-13T06:56:06.805Z,12.57
2022-10-13T06:58:35.165Z,12.47
2022-10-13T07:01:01.732Z,12.48
2022-10-13T07:03:28.307Z,12.65
2022-10-13T07:05:54.883Z,12.74
2022-10-13T07:08:21.343Z,12.87
2022-10-13T07:10:48.717Z,12.94
2022-10-13T07:13:15.263Z,13.04
2022-10-13T07:15:41.636Z,13.16
2022-10-13T07:18:08.619Z,13.31
2022-10-13T07:20:35.709Z,13.40
2022-10-13T07:23:02.475Z,13.43
2022-10-13T07:25:28.930Z,13.39
2022-10-13T07:27:55.492Z,13.37
2022-10-13T07:30:22.223Z,13.31
2022-10-13T07:32:48.796Z,13.28
2022-10-13T07:35:15.493Z,13.21
2022-10-13T07:37:42.053Z,13.32
2022-10-13T07:40:09.053Z,13.49
2022-10-13T07:42:35.886Z,13.60
2022-10-13T07:45:02.569Z,13.69
2022-10-13T07:47:29.507Z,13.74
2022-10-13T07:49:55.928Z,13.67
2022-10-13T07:52:23.144Z,13.76
2022-10-13T07:54:50.735Z,13.77
2022-10-13T07:57:17.667Z,13.66
2022-10-13T07:59:44.429Z,13.68
2022-10-13T08:02:12.950Z,13.69
2022-10-13T08:04:39.356Z,13.60
2022-10-13T08:07:06.566Z,13.52
2022-10-13T08:09:33.870Z,13.46
2022-10-13T08:12:01.822Z,13.52
2022-10-13T08:14:29.665Z,13.62
2022-10-13T08:16:57.163Z,13.58
2022-10-13T08:19:26.208Z,13.67
2022-10-13T08:21:58.088Z,13.68
2022-10-13T08:24:26.201Z,13.72
2022-10-13T08:26:52.702Z,13.79
2022-10-13T08:29:23.894Z,13.68
2022-10-13T08:31:53.082Z,13.62
2022-10-13T08:34:20.540Z,13.60
2022-10-13T08:36:47.301Z,13.73
2022-10-13T08:39:14.189Z,13.83
2022-10-13T08:41:45.560Z,13.82
2022-10-13T08:45:06.320Z,13.90
2022-10-13T08:47:38.262Z,13.93
2022-10-13T08:50:21.407Z,14.00
2022-10-13T08:52:58.286Z,14.03
2022-10-13T08:55:35.112Z,14.03
2022-10-13T08:58:06.293Z,14.09
2022-10-13T09:00:32.667Z,14.21
2022-10-13T09:03:19.476Z,14.20
2022-10-13T09:06:13.115Z,14.10
2022-10-13T09:08:44.009Z,14.07
2022-10-13T09:11:12.454Z,14.24
2022-10-13T09:13:38.841Z,14.44
2022-10-13T09:16:05.631Z,14.53
2022-10-13T09:18:33.545Z,14.48
2022-10-13T09:21:15.499Z,14.47
2022-10-13T09:23:42.174Z,14.50
2022-10-13T09:26:16.256Z,14.63
2022-10-13T09:28:43.092Z,14.83
2022-10-13T09:31:16.954Z,14.91
2022-10-13T09:33:44.561Z,14.93
2022-10-13T09:36:13.686Z,15.07
2022-10-13T09:38:42.946Z,15.09
2022-10-13T09:41:09.248Z,15.13
2022-10-13T09:43:45.561Z,15.25
2022-10-13T09:46:26.669Z,15.33
2022-10-13T09:49:03.515Z,15.34
2022-10-13T09:51:32.537Z,15.74
2022-10-13T09:54:02.212Z,16.29
2022-10-13T09:56:38.235Z,16.86
2022-10-13T09:59:31.102Z,17.28
2022-10-13T10:02:00.052Z,17.42
2022-10-13T10:04:38.320Z,17.38
2022-10-13T10:07:20.820Z,17.16
2022-10-13T10:09:57.455Z,17.15
2022-10-13T10:12:28.663Z,17.16
2022-10-13T10:14:55.481Z,16.95
2022-10-13T10:17:55.654Z,16.77
2022-10-13T10:20:33.796Z,16.52
2022-10-13T10:23:11.128Z,16.40
2022-10-13T10:26:01.269Z,16.37
2022-10-13T10:28:33.796Z,16.37
2022-10-13T10:31:31.248Z,16.20
2022-10-13T10:34:15.394Z,16.24
2022-10-13T10:36:53.212Z,16.34
2022-10-13T10:39:27.869Z,16.40
2022-10-13T10:42:05.374Z,16.44
2022-10-13T10:44:41.069Z,16.51
2022-10-13T10:47:26.023Z,16.61
2022-10-13T10:50:05.793Z,16.73
2022-10-13T10:53:06.628Z,16.75
2022-10-13T10:55:48.587Z,16.69
2022-10-13T10:58:18.130Z,16.65
2022-10-13T11:01:14.433Z,16.70
2022-10-13T11:03:57.891Z,16.95
2022-10-13T11:06:34.051Z,17.54
2022-10-13T11:09:00.984Z,18.02
2022-10-13T11:11:33.372Z,18.27
2022-10-13T11:14:06.582Z,18.52
2022-10-13T11:16:41.072Z,18.60
2022-10-13T11:19:34.286Z,19.69
2022-10-13T11:22:00.671Z,21.03
2022-10-13T11:24:39.338Z,22.04
2022-10-13T11:27:08.963Z,23.15
2022-10-13T11:29:44.373Z,24.16
2022-10-13T11:32:26.157Z,24.52
2022-10-13T11:35:00.513Z,23.65
2022-10-13T11:37:55.839Z,23.05
2022-10-13T11:40:56.457Z,23.16
2022-10-13T11:43:44.706Z,24.94
2022-10-13T11:46:22.761Z,25.81
2022-10-13T11:49:40.898Z,27.04
2022-10-13T11:52:22.800Z,28.82
2022-10-13T11:55:12.681Z,30.19
2022-10-13T11:57:41.372Z,30.57
2022-10-13T12:00:18.907Z,31.43
2022-10-13T12:02:51.345Z,32.12
2022-10-13T12:05:24.436Z,30.16
2022-10-13T12:07:53.274Z,28.10
2022-10-13T12:10:26.991Z,26.06
2022-10-13T12:12:53.456Z,24.43
2022-10-13T12:15:43.169Z,23.48
2022-10-13T12:18:28.232Z,23.22
2022-10-13T12:20:56.641Z,23.53
2022-10-13T12:23:23.346Z,23.15
2022-10-13T12:25:57.151Z,22.29
2022-10-13T12:28:25.758Z,21.78
2022-10-13T12:30:58.795Z,20.93
2022-10-13T12:33:35.414Z,21.36
2022-10-13T12:36:18.826Z,21.95
2022-10-13T12:38:54.080Z,21.71
2022-10-13T12:41:33.241Z,21.22
2022-10-13T12:44:02.537Z,20.79
2022-10-13T12:46:43.605Z,20.38
2022-10-13T12:49:14.834Z,19.79
2022-10-13T12:51:43.232Z,19.36
2022-10-13T12:54:20.828Z,19.17
2022-10-13T12:56:48.213Z,19.00
2022-10-13T12:59:18.084Z,19.04
2022-10-13T13:01:54.618Z,19.14
2022-10-13T13:04:21.096Z,19.16
2022-10-13T13:06:56.441Z,18.93
2022-10-13T13:09:38.716Z,18.74
2022-10-13T13:12:08.171Z,18.63
2022-10-13T13:14:42.157Z,18.49
2022-10-13T13:17:12.935Z,18.31
2022-10-13T13:19:41.772Z,18.26
2022-10-13T13:22:10.196Z,18.17
2022-10-13T13:24:40.214Z,18.19
2022-10-13T13:27:18.502Z,18.20
2022-10-13T13:29:45.593Z,18.27
2022-10-13T13:32:14.064Z,18.24
2022-10-13T13:34:40.578Z,18.22
2022-10-13T13:37:14.022Z,18.16
2022-10-13T13:39:40.863Z,18.19
2022-10-13T13:42:13.513Z,18.11
2022-10-13T13:44:39.974Z,18.14
2022-10-13T13:47:15.600Z,18.05
2022-10-13T13:49:46.017Z,18.01
2022-10-13T13:52:12.454Z,17.93
2022-10-13T13:54:38.854Z,17.90
2022-10-13T13:57:05.394Z,17.92
2022-10-13T13:59:31.928Z,17.89
2022-10-13T14:01:58.693Z,17.95
2022-10-13T14:04:26.039Z,18.02
2022-10-13T14:06:52.911Z,18.00
2022-10-13T14:09:19.404Z,17.94
2022-10-13T14:11:45.839Z,17.95
2022-10-13T14:14:12.277Z,18.00
2022-10-13T14:16:38.720Z,18.05
2022-10-13T14:19:05.517Z,18.07
2022-10-13T14:21:32.031Z,18.02
2022-10-13T14:23:59.470Z,18.00
2022-10-13T14:26:26.164Z,18.02
2022-10-13T14:28:52.721Z,18.10
2022-10-13T14:31:19.151Z,18.11
2022-10-13T14:33:48.746Z,18.12
2022-10-13T14:36:18.488Z,18.14
2022-10-13T14:38:44.898Z,18.19
2022-10-13T14:41:11.674Z,18.30
2022-10-13T14:43:38.283Z,18.31
2022-10-13T14:46:06.530Z,18.30
2022-10-13T14:48:34.424Z,18.32
2022-10-13T14:51:09.228Z,18.33
2022-10-13T14:53:37.894Z,18.32
2022-10-13T14:56:19.324Z,18.25
2022-10-13T14:58:50.768Z,18.23
2022-10-13T15:01:18.015Z,18.16
2022-10-13T15:03:44.875Z,18.17
2022-10-13T15:06:16.413Z,18.16
2022-10-13T15:08:43.894Z,18.22
2022-10-13T15:11:11.492Z,18.24
2022-10-13T15:13:38.624Z,18.25
2022-10-13T15:16:06.189Z,18.27
2022-10-13T15:18:35.965Z,18.15
2022-10-13T15:21:02.814Z,18.09
2022-10-13T15:23:29.344Z,18.08
2022-10-13T15:26:00.987Z,18.06
2022-10-13T15:28:36.463Z,18.00
2022-10-13T15:31:02.958Z,17.96
2022-10-13T15:33:29.655Z,17.98
2022-10-13T15:35:56.345Z,17.95
2022-10-13T15:38:23.475Z,17.92
2022-10-13T15:40:50.057Z,17.90
2022-10-13T15:43:17.308Z,17.79
2022-10-13T15:45:53.380Z,17.72
2022-10-13T15:48:19.815Z,17.66
2022-10-13T15:50:46.232Z,17.63
2022-10-13T15:53:13.360Z,17.64
2022-10-13T15:55:40.469Z,17.63
2022-10-13T15:58:11.358Z,17.63
2022-10-13T16:00:41.137Z,17.61
2022-10-13T16:03:12.216Z,17.61
2022-10-13T16:05:40.596Z,17.55
2022-10-13T16:08:06.961Z,17.57
2022-10-13T16:10:33.376Z,17.58
2022-10-13T16:13:00.265Z,17.62
2022-10-13T16:15:27.286Z,17.61
2022-10-13T16:17:53.790Z,17.62
2022-10-13T16:20:21.389Z,17.60
2022-10-13T16:22:47.959Z,17.61
2022-10-13T16:25:14.372Z,17.67
2022-10-13T16:27:44.220Z,17.68
2022-10-13T16:30:11.817Z,17.73
2022-10-13T16:32:39.528Z,17.74
2022-10-13T16:35:07.075Z,17.74
2022-10-13T16:37:33.574Z,17.71
2022-10-13T16:39:59.936Z,17.71
2022-10-13T16:42:26.559Z,17.69
2022-10-13T16:44:53.099Z,17.64
2022-10-13T16:47:19.927Z,17.62
2022-10-13T16:49:46.990Z,17.66
2022-10-13T16:52:14.730Z,17.72
2022-10-13T16:54:43.570Z,17.72
2022-10-13T16:57:09.956Z,17.69
2022-10-13T16:59:36.649Z,17.77
2022-10-13T17:02:03.092Z,17.82
2022-10-13T17:04:30.864Z,17.88
2022-10-13T17:06:57.336Z,17.91
2022-10-13T17:09:23.688Z,17.92
2022-10-13T17:11:50.070Z,17.94
2022-10-13T17:14:16.414Z,17.96
2022-10-13T17:16:44.074Z,17.98
2022-10-13T17:19:10.533Z,17.98
2022-10-13T17:21:37.159Z,17.96
2022-10-13T17:24:05.635Z,17.94
2022-10-13T17:26:32.819Z,17.83
2022-10-13T17:28:59.307Z,17.79
2022-10-13T17:31:25.802Z,17.81
2022-10-13T17:33:53.063Z,17.81
2022-10-13T17:36:28.154Z,17.79
2022-10-13T17:38:56.205Z,17.79
2022-10-13T17:41:24.302Z,17.79
2022-10-13T17:43:51.614Z,17.71
2022-10-13T17:46:41.865Z,17.71
2022-10-13T17:49:11.143Z,17.72
2022-10-13T17:51:38.155Z,17.70
2022-10-13T17:54:06.837Z,17.67
2022-10-13T17:56:35.684Z,17.66
2022-10-13T17:59:02.464Z,17.66
2022-10-13T18:01:31.771Z,17.64
2022-10-13T18:04:08.297Z,17.61
2022-10-13T18:06:39.747Z,17.60
2022-10-13T18:09:09.177Z,17.59
2022-10-13T18:11:36.204Z,17.56
2022-10-13T18:14:04.311Z,17.41
2022-10-13T18:16:35.127Z,17.17
2022-10-13T18:19:04.097Z,17.13
2022-10-13T18:21:31.223Z,17.17
2022-10-13T18:24:02.903Z,17.21
2022-10-13T18:26:32.064Z,17.24
2022-10-13T18:28:58.709Z,17.27
2022-10-13T18:31:30.501Z,17.25
2022-10-13T18:34:03.895Z,17.27
2022-10-13T18:36:33.048Z,17.31
2022-10-13T18:39:11.044Z,17.33
2022-10-13T18:41:39.607Z,17.31
2022-10-13T18:44:07.114Z,17.25
2022-10-13T18:46:34.578Z,17.22
2022-10-13T18:49:01.207Z,17.26
2022-10-13T18:51:33.385Z,17.27
2022-10-13T18:54:02.398Z,17.31
2022-10-13T18:56:30.465Z,17.32
2022-10-13T18:58:59.841Z,17.34
2022-10-13T19:01:28.761Z,17.34
2022-10-13T19:03:55.856Z,17.33
2022-10-13T19:06:26.603Z,17.33
2022-10-13T19:09:02.068Z,17.30
2022-10-13T19:11:29.507Z,17.31
2022-10-13T19:13:57.053Z,17.30
2022-10-13T19:16:25.186Z,17.28
2022-10-13T19:18:52.324Z,17.27
2022-10-13T19:21:20.150Z,17.27
2022-10-13T19:23:47.154Z,17.26
2022-10-13T19:26:25.135Z,17.25
2022-10-13T19:29:01.591Z,17.23
2022-10-13T19:31:30.142Z,17.24
2022-10-13T19:33:59.320Z,17.25
2022-10-13T19:36:32.968Z,17.24
2022-10-13T19:39:05.015Z,17.24
2022-10-13T19:41:32.208Z,17.22
2022-10-13T19:43:59.502Z,17.19
2022-10-13T19:46:35.864Z,17.19
2022-10-13T19:49:03.545Z,17.18
2022-10-13T19:51:29.966Z,17.16
2022-10-13T19:53:56.488Z,17.14
2022-10-13T19:56:31.502Z,17.08
2022-10-13T19:58:58.695Z,17.01
2022-10-13T20:01:25.144Z,16.94
2022-10-13T20:03:51.580Z,16.85
2022-10-13T20:06:19.294Z,16.75
2022-10-13T20:08:46.186Z,16.63
2022-10-13T20:11:20.699Z,16.48
2022-10-13T20:13:49.669Z,16.41
2022-10-13T20:16:18.610Z,16.34
2022-10-13T20:18:45.352Z,16.32
2022-10-13T20:21:12.852Z,16.34
2022-10-13T20:23:40.829Z,16.32
2022-10-13T20:26:09.589Z,16.26
2022-10-13T20:28:42.733Z,16.24
2022-10-13T20:31:12.791Z,16.23
2022-10-13T20:33:39.787Z,16.25
2022-10-13T20:36:09.157Z,16.30
2022-10-13T20:38:35.994Z,16.30
2022-10-13T20:41:28.316Z,16.28
2022-10-13T20:43:57.069Z,16.27
2022-10-13T20:46:23.980Z,16.25
2022-10-13T20:49:09.906Z,16.23
2022-10-13T20:51:37.458Z,16.23
2022-10-13T20:54:04.078Z,16.23
2022-10-13T20:56:30.600Z,16.21
2022-10-13T20:59:02.188Z,16.17
2022-10-13T21:01:28.688Z,16.19
2022-10-13T21:03:55.640Z,16.22
2022-10-13T21:06:27.356Z,16.23
2022-10-13T21:09:00.053Z,16.26
2022-10-13T21:11:26.923Z,16.37
2022-10-13T21:13:53.553Z,16.47
2022-10-13T21:16:28.901Z,16.45
2022-10-13T21:18:57.204Z,16.33
2022-10-13T21:21:28.637Z,16.21
2022-10-13T21:23:57.580Z,16.20
2022-10-13T21:26:26.138Z,16.20
2022-10-13T21:28:53.041Z,16.22
2022-10-13T21:31:22.170Z,16.29
2022-10-13T21:33:49.627Z,16.25
2022-10-13T21:36:19.431Z,16.24
2022-10-13T21:38:47.078Z,16.23
2022-10-13T21:41:14.900Z,16.23
2022-10-13T21:43:42.412Z,16.22
2022-10-13T21:46:16.834Z,16.14
2022-10-13T21:48:44.392Z,16.10
2022-10-13T21:51:22.407Z,16.05
2022-10-13T21:53:51.176Z,16.01
2022-10-13T21:56:18.541Z,16.05
2022-10-13T21:58:45.656Z,16.07
2022-10-13T22:01:12.204Z,16.11
2022-10-13T22:03:39.249Z,16.10
2022-10-13T22:06:08.152Z,16.09
2022-10-13T22:08:42.582Z,16.08
2022-10-13T22:11:14.370Z,16.11
2022-10-13T22:13:40.876Z,16.10
2022-10-13T22:16:11.495Z,16.02
2022-10-13T22:18:40.943Z,16.05
2022-10-13T22:21:11.029Z,16.16
2022-10-13T22:23:37.479Z,16.20
2022-10-13T22:26:04.086Z,16.22
2022-10-13T22:28:36.076Z,16.25
2022-10-13T22:31:09.368Z,16.25
2022-10-13T22:33:37.200Z,16.13
2022-10-13T22:36:11.762Z,16.04
2022-10-13T22:38:38.290Z,16.04
2022-10-13T22:41:07.752Z,16.08
2022-10-13T22:43:34.864Z,16.14
2022-10-13T22:46:14.363Z,16.21
2022-10-13T22:48:41.786Z,16.25
2022-10-13T22:51:13.281Z,16.23
2022-10-13T22:53:39.839Z,16.19
2022-10-13T22:56:14.163Z,16.14
2022-10-13T22:58:40.752Z,16.11
2022-10-13T23:01:09.562Z,16.10
2022-10-13T23:03:37.114Z,16.13
2022-10-13T23:06:04.384Z,16.12
2022-10-13T23:08:30.958Z,16.21
2022-10-13T23:10:57.865Z,16.28
2022-10-13T23:13:24.739Z,16.32
2022-10-13T23:15:52.396Z,16.36
2022-10-13T23:18:18.921Z,16.26
2022-10-13T23:20:45.267Z,16.25
2022-10-13T23:23:13.864Z,16.23
2022-10-13T23:25:40.241Z,16.22
2022-10-13T23:28:06.608Z,16.23
2022-10-13T23:30:32.964Z,16.24
2022-10-13T23:32:59.296Z,16.23
2022-10-13T23:35:25.804Z,16.21
2022-10-13T23:37:52.856Z,16.17
2022-10-13T23:40:19.919Z,16.17
2022-10-13T23:42:46.436Z,16.21
2022-10-13T23:45:12.869Z,16.28
2022-10-13T23:47:40.236Z,16.34
2022-10-13T23:50:06.807Z,16.39
2022-10-13T23:52:34.024Z,16.35
2022-10-13T23:55:00.415Z,16.37
2022-10-13T23:57:29.689Z,16.37
2022-10-13T23:59:56.094Z,16.39
